Time;durP1;ratioP1;P1;durP2;ratioP2;P2;SDS_P1;SDS_P2;PMS_P1;PMS_P2;Temp;Humidity;BMP_temperature;BMP_pressure;BME280_temperature;BME280_humidity;BME280_pressure;Samples;Min_cycle;Max_cycle;Signal;HPM_P1;HPM_P2
2023/01/09 01:09:46;;;;;;;40.95;23.13;;;8.30;99.90;;;;;;6050823;23;20793;31
2023/01/09 01:12:12;;;;;;;36.70;24.58;;;8.20;99.90;;;;;;4883927;29;20049;-81
2023/01/09 01:14:38;;;;;;;;;;;8.20;99.90;;;;;;4868340;29;20056;-80
2023/01/09 01:17:05;;;;;;;35.42;20.67;;;8.30;99.90;;;;;;4884493;29;19904;-82
2023/01/09 01:19:31;;;;;;;34.10;21.83;;;8.20;99.90;;;;;;4869258;29;20030;-82
2023/01/09 01:21:57;;;;;;;35.70;23.38;;;8.20;99.90;;;;;;4869748;29;20040;-83
2023/01/09 01:24:23;;;;;;;;;;;8.30;99.90;;;;;;4885453;29;20037;-82
2023/01/09 01:26:49;;;;;;;35.35;21.38;;;8.20;99.90;;;;;;4884197;29;19908;-80
2023/01/09 01:29:15;;;;;;;;;;;8.30;99.90;;;;;;4885255;29;20014;-81
2023/01/09 01:31:41;;;;;;;34.30;20.02;;;8.20;99.90;;;;;;4884844;29;20376;-82
2023/01/09 01:34:06;;;;;;;;;;;8.20;99.90;;;;;;4885399;29;20037;-81
2023/01/09 01:36:33;;;;;;;31.40;19.02;;;8.20;99.90;;;;;;4884572;29;19899;-82
2023/01/09 01:38:59;;;;;;;30.90;19.88;;;8.10;99.90;;;;;;4869105;29;20107;-82
2023/01/09 01:41:28;;;;;;;;;;;8.30;99.90;;;;;;4884497;29;20049;-81
2023/01/09 01:44:00;;;;;;;30.38;19.40;;;8.20;99.90;;;;;;4869118;29;19960;-82
2023/01/09 01:46:27;;;;;;;31.67;19.25;;;8.20;99.90;;;;;;4886020;29;20085;-82
2023/01/09 01:49:05;;;;;;;29.75;17.90;;;8.00;99.90;;;;;;4870355;29;20045;-83
2023/01/09 01:51:34;;;;;;;29.35;18.45;;;8.20;99.90;;;;;;4869295;29;20025;-82
2023/01/09 01:54:05;;;;;;;35.25;20.90;;;8.20;99.90;;;;;;4885135;29;20042;-82
2023/01/09 01:56:44;;;;;;;36.33;21.00;;;8.20;99.90;;;;;;4869912;29;20005;-83
2023/01/09 01:59:23;;;;;;;31.63;20.25;;;8.10;99.90;;;;;;4900785;29;20047;-83
2023/01/09 02:01:53;;;;;;;34.42;22.45;;;8.20;99.90;;;;;;4900832;29;20033;-83
2023/01/09 02:04:19;;;;;;;31.55;20.08;;;8.10;99.90;;;;;;4870302;29;20022;-83
2023/01/09 02:06:48;;;;;;;33.13;21.08;;;8.10;99.90;;;;;;4900429;29;20049;-84
2023/01/09 02:09:16;;;;;;;34.92;22.38;;;8.20;99.90;;;;;;4869341;29;20122;-83
2023/01/09 02:11:47;;;;;;;30.13;20.77;;;8.20;99.90;;;;;;4902140;29;20101;-82
2023/01/09 02:14:14;;;;;;;37.80;22.27;;;8.00;99.90;;;;;;4887155;29;20029;-83
2023/01/09 02:17:29;;;;;;;32.28;20.88;;;8.10;99.90;;;;;;4902628;29;20029;-83
2023/01/09 02:19:59;;;;;;;29.65;18.88;;;8.00;99.90;;;;;;4874227;29;20106;-84
2023/01/09 02:22:36;;;;;;;32.28;19.67;;;8.00;99.90;;;;;;4902062;29;20013;-82
2023/01/09 02:25:36;;;;;;;30.52;18.58;;;8.00;99.90;;;;;;4901998;29;20017;-80
2023/01/09 02:28:05;;;;;;;31.27;18.65;;;7.60;99.90;;;;;;4902799;29;20025;-81
2023/01/09 02:30:37;;;;;;;32.80;20.00;;;7.80;99.90;;;;;;4902296;29;20025;-81
2023/01/09 02:33:39;;;;;;;32.58;19.48;;;7.70;99.90;;;;;;4901178;29;20037;-80
2023/01/09 02:36:26;;;;;;;35.80;18.00;;;7.70;99.90;;;;;;4890552;29;20044;-83
2023/01/09 02:39:07;;;;;;;28.63;19.08;;;7.70;99.90;;;;;;4902094;29;20037;-83
2023/01/09 02:42:11;;;;;;;28.88;17.70;;;7.70;99.90;;;;;;4901823;29;20013;-82
2023/01/09 02:44:37;;;;;;;31.70;19.38;;;7.70;99.90;;;;;;4873047;29;20045;-83
2023/01/09 02:47:02;;;;;;;;;;;7.60;99.90;;;;;;4886170;29;20021;-81
2023/01/09 02:49:29;;;;;;;31.42;18.20;;;7.50;99.90;;;;;;4901039;29;19912;-82
2023/01/09 02:52:10;;;;;;;32.47;19.20;;;7.50;99.90;;;;;;4885346;29;20029;-81
2023/01/09 02:55:11;;;;;;;28.08;17.92;;;7.70;99.90;;;;;;4900728;29;20100;-80
2023/01/09 02:58:03;;;;;;;34.90;20.60;;;7.70;99.90;;;;;;4901686;29;20013;-82
2023/01/09 03:00:51;;;;;;;28.33;17.40;;;7.50;99.90;;;;;;4901131;29;20032;-82
2023/01/09 03:03:28;;;;;;;30.52;18.20;;;7.60;99.90;;;;;;4901194;29;20024;-81
2023/01/09 03:06:17;;;;;;;32.03;17.17;;;7.70;99.90;;;;;;4901341;29;20028;-82
2023/01/09 03:08:52;;;;;;;29.17;16.95;;;7.60;99.90;;;;;;4885388;29;20013;-83
2023/01/09 03:11:20;;;;;;;29.90;18.83;;;7.40;99.90;;;;;;4901174;29;20033;-82
2023/01/09 03:13:51;;;;;;;29.17;18.67;;;7.40;99.90;;;;;;4902100;29;20033;-82
2023/01/09 03:16:25;;;;;;;33.08;16.88;;;7.30;99.90;;;;;;4886365;29;20012;-82
2023/01/09 03:18:52;;;;;;;28.70;18.65;;;7.40;99.90;;;;;;4886333;29;20045;-83
2023/01/09 03:21:20;;;;;;;32.50;18.02;;;7.30;99.90;;;;;;4901853;29;20032;-82
2023/01/09 03:23:46;;;;;;;27.13;17.20;;;7.50;99.90;;;;;;4901725;29;20005;-82
2023/01/09 03:26:12;;;;;;;32.08;17.98;;;7.50;99.90;;;;;;4903521;29;20041;-83
2023/01/09 03:28:38;;;;;;;;;;;7.50;99.90;;;;;;4888252;29;20042;-81
2023/01/09 03:31:04;;;;;;;27.40;16.38;;;7.40;99.90;;;;;;4904232;29;19984;-83
2023/01/09 03:33:30;;;;;;;;;;;7.50;99.90;;;;;;4903314;29;20092;-82
2023/01/09 03:35:56;;;;;;;26.77;16.98;;;7.40;99.90;;;;;;4903939;29;19912;-80
2023/01/09 03:38:21;;;;;;;;;;;7.30;99.90;;;;;;4904138;29;20024;-81
2023/01/09 03:40:50;;;;;;;24.35;15.40;;;7.40;99.90;;;;;;4903604;29;19918;-82
2023/01/09 03:43:16;;;;;;;26.10;16.42;;;7.60;99.90;;;;;;4903899;29;20013;-82
2023/01/09 03:45:42;;;;;;;;;;;7.50;99.90;;;;;;4887157;29;20044;-82
2023/01/09 03:48:08;;;;;;;27.98;16.65;;;7.40;99.90;;;;;;4902953;29;19906;-82
2023/01/09 03:50:33;;;;;;;;;;;7.40;99.90;;;;;;4888020;29;20101;-82
2023/01/09 03:53:00;;;;;;;28.42;17.48;;;7.20;99.90;;;;;;4903992;29;19896;-81
2023/01/09 03:55:28;;;;;;;27.90;16.50;;;7.30;99.90;;;;;;4890536;29;20029;-83
2023/01/09 03:57:54;;;;;;;28.63;18.45;;;7.40;99.90;;;;;;4907493;29;20031;-83
2023/01/09 04:00:22;;;;;;;;;;;7.40;99.90;;;;;;4907717;29;20018;-82
2023/01/09 04:02:48;;;;;;;23.85;14.95;;;7.40;99.90;;;;;;4891477;29;19920;-84
2023/01/09 04:05:14;;;;;;;;;;;7.40;99.90;;;;;;4907842;29;20029;-83
2023/01/09 04:07:40;;;;;;;23.65;14.45;;;7.30;99.90;;;;;;4907357;29;19895;-84
2023/01/09 04:10:05;;;;;;;;;;;7.50;99.90;;;;;;4907331;29;20093;-82
2023/01/09 04:12:31;;;;;;;25.10;15.85;;;7.40;99.90;;;;;;4907174;29;19916;-83
2023/01/09 04:14:57;;;;;;;;;;;7.50;99.90;;;;;;4891023;29;20054;-83
2023/01/09 04:17:23;;;;;;;29.95;17.02;;;7.50;99.90;;;;;;4906681;29;19912;-82
2023/01/09 04:19:49;;;;;;;;;;;7.40;99.90;;;;;;4891128;29;20053;-84
2023/01/09 04:22:15;;;;;;;26.38;17.38;;;7.30;99.90;;;;;;4906235;29;19938;-85
2023/01/09 04:24:41;;;;;;;26.45;16.00;;;7.30;99.90;;;;;;4890615;29;20485;-84
2023/01/09 04:27:06;;;;;;;;;;;7.10;99.90;;;;;;4907008;29;20086;-83
2023/01/09 04:29:32;;;;;;;26.73;16.10;;;7.10;99.90;;;;;;4890868;29;19896;-84
2023/01/09 04:31:58;;;;;;;;;;;7.10;99.90;;;;;;4906487;29;20041;-82
2023/01/09 04:34:24;;;;;;;29.52;15.25;;;7.20;99.90;;;;;;4890378;29;19914;-83
2023/01/09 04:36:52;;;;;;;25.55;16.23;;;7.20;99.90;;;;;;4906199;29;20038;-81
2023/01/09 04:44:28;;;;;;;30.70;15.52;;;7.10;99.90;;;;;;4938310;29;20051;-83
2023/01/09 04:46:55;;;;;;;;;;;7.10;99.90;;;;;;4945245;29;20012;-81
2023/01/09 04:49:22;;;;;;;29.80;16.95;;;7.20;99.90;;;;;;4944835;29;19903;-82
2023/01/09 04:51:48;;;;;;;23.75;15.60;;;7.20;99.90;;;;;;4928550;29;20020;-80
2023/01/09 04:54:14;;;;;;;25.77;17.52;;;7.10;99.90;;;;;;4928585;29;20091;-80
2023/01/09 04:56:39;;;;;;;;;;;7.10;99.90;;;;;;4944995;29;20028;-81
2023/01/09 04:59:06;;;;;;;28.67;18.67;;;6.90;99.90;;;;;;4944784;29;19919;-80
2023/01/09 05:01:32;;;;;;;29.95;17.13;;;7.00;99.90;;;;;;4944550;29;20044;-81
2023/01/09 05:03:58;;;;;;;;;;;7.10;99.90;;;;;;4928586;29;20008;-81
2023/01/09 05:06:26;;;;;;;26.30;15.63;;;7.10;99.90;;;;;;4927568;29;19967;-81
2023/01/09 05:08:52;;;;;;;25.20;16.48;;;7.10;99.90;;;;;;4943823;29;20045;-80
2023/01/09 05:11:18;;;;;;;;;;;7.00;99.90;;;;;;4944898;29;20040;-80
2023/01/09 05:13:44;;;;;;;24.42;15.73;;;6.90;99.90;;;;;;4928314;29;19895;-80
2023/01/09 05:16:10;;;;;;;;;;;6.90;99.90;;;;;;4928471;29;20036;-81
2023/01/09 05:18:36;;;;;;;25.95;15.70;;;6.90;99.90;;;;;;4928032;29;19926;-81
2023/01/09 05:21:01;;;;;;;;;;;6.80;99.90;;;;;;4944612;29;20039;-81
2023/01/09 05:23:27;;;;;;;21.02;13.45;;;6.90;99.90;;;;;;4927901;29;19906;-81
2023/01/09 05:25:53;;;;;;;;;;;7.00;99.90;;;;;;4943998;29;20099;-82
2023/01/09 05:28:19;;;;;;;25.35;14.80;;;6.90;99.90;;;;;;4943447;29;19895;-82
2023/01/09 05:30:45;;;;;;;;;;;6.80;99.90;;;;;;4927784;29;20012;-82
2023/01/09 05:33:11;;;;;;;27.77;15.83;;;6.80;99.90;;;;;;4943768;29;19919;-80
2023/01/09 05:35:37;;;;;;;;;;;6.80;99.90;;;;;;4944339;29;20252;-81
2023/01/09 05:38:02;;;;;;;26.63;15.50;;;6.60;99.90;;;;;;4927376;29;19895;-80
2023/01/09 05:40:28;;;;;;;;;;;6.60;99.90;;;;;;4927866;29;20095;-82
2023/01/09 05:42:54;;;;;;;25.35;14.65;;;6.50;99.90;;;;;;4927461;29;19899;-81
2023/01/09 05:45:19;;;;;;;;;;;6.60;99.90;;;;;;4944004;29;20051;-82
2023/01/09 05:47:45;;;;;;;27.85;16.33;;;6.50;99.90;;;;;;4927010;29;19903;-80
2023/01/09 05:50:11;;;;;;;;;;;6.50;99.90;;;;;;4927331;29;20105;-79
2023/01/09 05:52:37;;;;;;;21.65;13.13;;;6.50;99.90;;;;;;4943440;29;19922;-81
2023/01/09 05:55:04;;;;;;;;;;;6.60;99.90;;;;;;4927521;29;20016;-80
2023/01/09 05:57:29;;;;;;;21.80;13.40;;;6.70;99.90;;;;;;4943202;29;19895;-80
2023/01/09 05:59:55;;;;;;;;;;;6.60;99.90;;;;;;4927417;29;20026;-80
2023/01/09 06:02:21;;;;;;;25.35;13.30;;;6.50;99.90;;;;;;4943142;29;19895;-80
2023/01/09 06:04:47;;;;;;;;;;;6.50;99.90;;;;;;4927282;29;20028;-82
2023/01/09 06:07:13;;;;;;;19.70;12.48;;;6.50;99.90;;;;;;4927260;29;19954;-82
2023/01/09 06:09:39;;;;;;;;;;;6.50;99.90;;;;;;4927334;29;20012;-83
2023/01/09 06:12:05;;;;;;;26.13;13.25;;;6.60;99.90;;;;;;4927056;29;19895;-80
2023/01/09 06:14:30;;;;;;;;;;;6.60;99.90;;;;;;4943426;29;20020;-81
2023/01/09 06:16:56;;;;;;;20.30;11.70;;;6.60;99.90;;;;;;4943345;29;19910;-81
2023/01/09 06:19:22;;;;;;;;;;;6.60;99.90;;;;;;4943180;29;20106;-81
2023/01/09 06:21:48;;;;;;;22.27;13.27;;;6.60;99.90;;;;;;4942972;29;19902;-81
2023/01/09 06:24:13;;;;;;;;;;;6.40;99.90;;;;;;4943105;29;20080;-81
2023/01/09 06:26:39;;;;;;;18.15;11.80;;;6.50;99.90;;;;;;4926670;29;19919;-81
2023/01/09 06:29:06;;;;;;;;;;;6.40;99.90;;;;;;4943197;29;20031;-80
2023/01/09 06:31:32;;;;;;;26.42;13.82;;;6.50;99.90;;;;;;4925732;29;19895;-81
2023/01/09 06:33:58;;;;;;;;;;;6.30;99.90;;;;;;4942764;29;20068;-80
2023/01/09 06:36:24;;;;;;;19.52;12.15;;;6.40;99.90;;;;;;4926712;29;19895;-81
2023/01/09 06:38:50;;;;;;;;;;;6.50;99.90;;;;;;4926919;29;20012;-81
2023/01/09 06:41:16;;;;;;;20.75;11.93;;;6.40;99.90;;;;;;4942899;29;19907;-81
2023/01/09 06:43:42;;;;;;;20.17;11.38;;;6.50;99.90;;;;;;4926488;29;20062;-83
2023/01/09 06:46:08;;;;;;;;;;;6.40;99.90;;;;;;4943070;29;20024;-81
2023/01/09 06:48:35;;;;;;;20.73;12.70;;;6.60;99.90;;;;;;4942692;29;19907;-81
2023/01/09 06:51:01;;;;;;;;;;;6.70;99.90;;;;;;4943049;29;20086;-82
2023/01/09 06:53:26;;;;;;;18.95;11.38;;;6.40;99.90;;;;;;4926311;29;19895;-81
2023/01/09 06:55:52;;;;;;;;;;;6.50;99.90;;;;;;4926840;29;20031;-84
2023/01/09 06:58:18;;;;;;;32.92;15.40;;;6.50;99.90;;;;;;4926305;29;19903;-82
2023/01/09 07:00:44;;;;;;;;;;;6.60;99.90;;;;;;4926452;29;20039;-82
2023/01/09 07:03:11;;;;;;;22.60;11.55;;;6.60;99.90;;;;;;4926252;29;19929;-82
2023/01/09 07:05:40;;;;;;;22.77;13.55;;;6.60;99.90;;;;;;4926245;29;20031;-82
2023/01/09 07:08:06;;;;;;;39.42;22.15;;;6.80;99.90;;;;;;4942413;29;20032;-84
2023/01/09 07:10:32;;;;;;;;;;;6.80;99.90;;;;;;4926578;29;20012;-83
2023/01/09 07:12:58;;;;;;;20.17;10.95;;;6.90;99.90;;;;;;4926084;29;19911;-82
2023/01/09 07:15:23;;;;;;;;;;;6.90;99.90;;;;;;4926686;29;20017;-81
2023/01/09 07:17:53;;;;;;;20.48;11.68;;;6.80;99.90;;;;;;4926316;29;19954;-82
2023/01/09 07:20:19;;;;;;;19.23;11.38;;;6.80;99.90;;;;;;4925978;29;20016;-80
2023/01/09 07:22:45;;;;;;;;;;;6.70;99.90;;;;;;4942829;29;20024;-84
2023/01/09 07:25:11;;;;;;;33.45;18.10;;;6.80;99.90;;;;;;4942433;29;19928;-80
2023/01/09 07:27:37;;;;;;;20.85;11.23;;;6.60;99.90;;;;;;4942334;29;20075;-84
2023/01/09 07:30:04;;;;;;;;;;;6.80;99.90;;;;;;4928648;29;20040;-83
2023/01/09 07:32:30;;;;;;;19.67;12.27;;;6.60;99.90;;;;;;4946283;29;19926;-81
2023/01/09 07:34:56;;;;;;;;;;;6.50;99.90;;;;;;4946540;29;20024;-81
2023/01/09 08:23:47;;;;;;;25.70;13.90;;;6.70;99.90;;;;;;6065382;23;20026;31
2023/01/09 08:26:13;;;;;;;25.08;13.15;;;6.80;99.90;;;;;;4922782;29;20273;-83
2023/01/09 08:28:39;;;;;;;;;;;6.60;99.90;;;;;;4925500;29;20028;-84
2023/01/09 08:31:05;;;;;;;21.38;12.25;;;6.80;99.90;;;;;;4908903;29;19895;-82
2023/01/09 08:33:31;;;;;;;;;;;6.90;99.90;;;;;;4925142;29;20020;-83
2023/01/09 08:38:32;;;;;;;18.20;11.35;;;7.00;99.90;;;;;;5295839;23;20087;-83
2023/01/09 08:40:58;;;;;;;;;;;6.90;99.90;;;;;;4945010;29;20067;-83
2023/01/09 08:49:03;;;;;;;22.13;11.98;;;6.80;99.90;;;;;;4963317;28;20054;-84
2023/01/09 08:51:29;;;;;;;;;;;6.80;99.90;;;;;;4946946;28;20032;-82
2023/01/09 08:53:55;;;;;;;21.65;13.50;;;6.70;99.90;;;;;;4946667;28;19942;-84
2023/01/09 08:56:20;;;;;;;;;;;6.70;99.90;;;;;;4963158;29;20039;-83
2023/01/09 08:58:46;;;;;;;21.83;12.77;;;6.60;99.90;;;;;;4946456;29;19941;-83
2023/01/09 09:01:12;;;;;;;;;;;6.80;99.90;;;;;;4963146;28;20032;-83
2023/01/09 09:03:38;;;;;;;21.77;10.93;;;6.80;99.90;;;;;;4945854;29;19935;-83
2023/01/09 09:06:05;;;;;;;;;;;7.00;99.90;;;;;;4945127;29;20125;-82
2023/01/09 09:08:31;;;;;;;;;;;7.00;99.90;;;;;;4946273;28;19901;-84
2023/01/09 09:10:59;;;;;;;49.22;27.00;;;6.90;99.90;;;;;;4946028;29;19895;-81
2023/01/09 09:13:25;;;;;;;145.90;77.85;;;7.00;99.90;;;;;;4945983;29;20067;-84
2023/01/09 09:15:51;;;;;;;;;;;7.00;99.90;;;;;;4961848;28;20044;-84
2023/01/09 09:18:17;;;;;;;30.88;15.57;;;7.00;99.90;;;;;;4962837;28;19894;-84
2023/01/09 09:20:42;;;;;;;;;;;6.90;99.90;;;;;;4946585;29;20036;-83
2023/01/09 09:23:08;;;;;;;24.50;14.57;;;7.00;99.90;;;;;;4946094;29;19902;-84
2023/01/09 09:25:34;;;;;;;;;;;6.90;99.90;;;;;;4962458;28;20027;-83
2023/01/09 09:28:00;;;;;;;27.55;15.65;;;6.80;99.90;;;;;;4946200;29;19915;-82
2023/01/09 09:30:34;;;;;;;;;;;7.00;99.90;;;;;;4945702;29;20509;-85
2023/01/09 09:33:03;;;;;;;27.70;14.60;;;7.00;99.90;;;;;;4946200;28;19918;-82
2023/01/09 10:30:59;;;;;;;25.02;13.65;;;7.00;99.90;;;;;;5003322;23;20027;-83
2023/01/09 10:43:56;;;;;;;25.48;14.82;;;6.90;99.90;;;;;;5161730;23;20055;-84
2023/01/09 10:46:27;;;;;;;22.90;14.63;;;7.00;99.90;;;;;;4980719;28;20047;-82
2023/01/09 10:48:58;;;;;;;25.80;15.77;;;7.00;99.90;;;;;;4964098;28;20035;-84
2023/01/09 10:51:35;;;;;;;29.77;18.40;;;6.90;99.90;;;;;;4980438;28;20535;-83
2023/01/09 10:54:01;;;;;;;;;;;6.80;99.90;;;;;;4980603;29;20027;-84
2023/01/09 10:56:38;;;;;;;30.33;17.85;;;6.80;99.90;;;;;;4980407;29;19894;-83
2023/01/09 10:59:04;;;;;;;38.58;22.02;;;6.90;99.90;;;;;;4979945;29;20035;-84
2023/01/09 11:01:36;;;;;;;32.60;20.05;;;6.80;99.90;;;;;;4963646;28;20053;-83
2023/01/09 11:04:09;;;;;;;30.25;18.25;;;6.90;99.90;;;;;;4979592;28;20034;-84
2023/01/09 11:06:48;;;;;;;37.08;20.60;;;6.90;99.90;;;;;;4963642;28;20020;-83
2023/01/09 11:09:15;;;;;;;32.25;19.38;;;6.80;99.90;;;;;;4980405;28;20022;-83
2023/01/09 11:11:43;;;;;;;35.35;20.98;;;6.80;99.90;;;;;;4963790;28;20008;-83
2023/01/09 11:14:27;;;;;;;36.40;22.95;;;6.90;99.90;;;;;;4963604;28;20015;-83
2023/01/09 11:16:58;;;;;;;45.88;25.42;;;7.00;99.90;;;;;;4963659;28;20121;-83
2023/01/09 11:19:25;;;;;;;46.83;26.90;;;6.90;99.90;;;;;;4980328;28;20035;-84
2023/01/09 11:22:17;;;;;;;52.97;27.27;;;6.90;99.90;;;;;;4980279;28;20055;-82
2023/01/09 11:24:43;;;;;;;57.53;28.73;;;7.00;99.90;;;;;;4979246;29;20043;-83
2023/01/09 11:27:12;;;;;;;53.28;30.80;;;7.00;99.90;;;;;;4979831;29;20031;-83
2023/01/09 11:29:39;;;;;;;41.13;21.83;;;7.10;99.90;;;;;;4979812;28;20498;-82
2023/01/09 11:32:18;;;;;;;54.33;32.78;;;6.90;99.90;;;;;;4979764;28;20031;-84
2023/01/09 11:34:45;;;;;;;32.30;19.90;;;6.20;99.90;;;;;;4979881;28;20004;-83
2023/01/09 11:37:17;;;;;;;37.35;23.65;;;6.70;99.90;;;;;;4962986;28;20022;-82
2023/01/09 11:39:46;;;;;;;33.70;20.13;;;6.60;99.90;;;;;;4979834;28;20043;-82
2023/01/09 11:45:30;;;;;;;36.13;23.80;;;6.60;99.90;;;;;;4979662;29;20066;-82
2023/01/09 11:47:57;;;;;;;52.65;30.10;;;6.70;99.90;;;;;;4976676;29;20079;-83
2023/01/09 11:50:28;;;;;;;63.08;36.30;;;6.70;99.90;;;;;;4963027;28;20115;-82
2023/01/09 11:53:17;;;;;;;40.28;24.95;;;6.60;99.90;;;;;;4979717;29;20032;-82
2023/01/09 11:55:44;;;;;;;38.80;23.17;;;6.60;99.90;;;;;;4963029;28;20098;-81
2023/01/09 11:58:18;;;;;;;48.50;27.83;;;6.50;99.90;;;;;;4962767;29;20015;-83
2023/01/09 12:01:13;;;;;;;30.85;20.50;;;6.60;99.90;;;;;;4962770;28;20031;-83
2023/01/09 12:03:57;;;;;;;33.97;20.30;;;6.60;99.90;;;;;;4962714;28;20035;-83
2023/01/09 12:06:41;;;;;;;29.17;17.42;;;6.80;99.90;;;;;;4961887;28;20078;-84
2023/01/09 12:09:18;;;;;;;33.28;21.48;;;6.70;99.90;;;;;;4962269;29;20019;-82
2023/01/09 12:12:01;;;;;;;44.53;21.42;;;6.60;99.90;;;;;;4962513;29;20027;-81
2023/01/09 12:14:47;;;;;;;31.33;20.60;;;6.60;99.90;;;;;;4979022;29;20050;-82
2023/01/09 12:17:46;;;;;;;35.67;22.23;;;6.50;99.90;;;;;;4982580;28;20059;-82
2023/01/09 12:20:28;;;;;;;36.47;21.88;;;6.50;99.90;;;;;;4965755;29;20032;-83
2023/01/09 12:23:18;;;;;;;36.30;21.42;;;6.50;99.90;;;;;;4964536;29;20081;-82
2023/01/09 12:26:01;;;;;;;32.22;19.88;;;6.50;99.90;;;;;;4965207;29;20055;-83
2023/01/09 12:28:53;;;;;;;28.35;19.02;;;6.40;99.90;;;;;;4965738;28;20016;-83
2023/01/09 12:31:40;;;;;;;29.63;20.45;;;6.40;99.90;;;;;;4966104;28;20087;-82
2023/01/09 12:34:46;;;;;;;32.50;23.05;;;6.30;99.90;;;;;;4980376;28;20038;-80
2023/01/09 12:37:33;;;;;;;33.42;21.88;;;6.30;99.90;;;;;;4963213;28;20050;-81
2023/01/09 12:40:14;;;;;;;33.70;22.13;;;6.30;99.90;;;;;;4982758;28;20036;-82
2023/01/09 12:42:51;;;;;;;43.50;29.33;;;6.40;99.90;;;;;;4982662;28;20043;-82
2023/01/09 12:45:36;;;;;;;53.65;35.35;;;6.40;99.90;;;;;;4982385;28;20027;-81
2023/01/09 12:48:11;;;;;;;49.72;30.33;;;6.30;99.90;;;;;;4965632;28;20027;-84
2023/01/09 12:51:01;;;;;;;32.40;22.77;;;6.50;99.90;;;;;;4965709;28;20020;-83
2023/01/09 12:53:33;;;;;;;37.67;22.55;;;6.50;99.90;;;;;;4964292;29;20042;-83
2023/01/09 12:56:25;;;;;;;36.90;22.75;;;6.60;99.90;;;;;;4965783;28;20023;-82
2023/01/09 12:59:15;;;;;;;47.22;30.88;;;6.50;99.90;;;;;;4965401;28;20059;-81
2023/01/09 13:01:45;;;;;;;40.55;26.50;;;6.40;99.90;;;;;;4965185;29;20036;-82
2023/01/09 13:04:27;;;;;;;65.50;36.70;;;6.30;99.90;;;;;;4981929;29;20074;-82
2023/01/09 13:07:01;;;;;;;41.08;26.23;;;6.50;99.90;;;;;;4964787;29;20035;-81
2023/01/09 13:09:44;;;;;;;38.70;26.33;;;6.40;99.90;;;;;;4965565;28;20021;-81
2023/01/09 13:12:20;;;;;;;49.38;29.60;;;6.50;99.90;;;;;;4964942;28;20016;-83
2023/01/09 13:15:26;;;;;;;35.05;22.60;;;6.50;99.90;;;;;;4981720;28;20019;-82
2023/01/09 13:18:00;;;;;;;35.75;21.33;;;6.60;99.90;;;;;;4981052;28;20038;-82
2023/01/09 13:20:45;;;;;;;34.33;22.05;;;6.70;99.90;;;;;;4964647;29;20023;-82
2023/01/09 13:23:43;;;;;;;31.65;21.83;;;6.60;99.90;;;;;;4965005;28;20027;-84
2023/01/09 13:26:26;;;;;;;35.80;20.55;;;6.30;99.90;;;;;;4981100;28;20043;-81
2023/01/09 13:29:01;;;;;;;34.58;20.63;;;6.60;99.90;;;;;;4964675;29;20011;-81
2023/01/09 13:31:56;;;;;;;37.95;21.45;;;6.50;99.90;;;;;;4965215;28;20011;-82
2023/01/09 13:34:26;;;;;;;33.42;19.17;;;6.60;99.90;;;;;;4981797;28;20015;-83
2023/01/09 13:36:55;;;;;;;31.77;19.60;;;6.60;99.90;;;;;;4981178;28;20035;-82
2023/01/09 13:39:24;;;;;;;28.83;19.73;;;6.60;99.90;;;;;;4964464;29;20034;-82
2023/01/09 13:44:44;;;;;;;31.33;20.25;;;6.50;99.90;;;;;;4981289;28;20033;-82
2023/01/09 13:47:20;;;;;;;32.58;21.67;;;6.50;99.90;;;;;;4964958;28;20055;-83
2023/01/09 13:49:45;;;;;;;46.35;34.13;;;6.50;99.90;;;;;;4964406;28;20040;-82
2023/01/09 13:52:23;;;;;;;;;;;6.50;99.90;;;;;;4981739;28;20023;-83
2023/01/09 13:54:56;;;;;;;34.10;20.92;;;6.30;99.90;;;;;;4981057;29;19898;-80
2023/01/09 13:57:33;;;;;;;44.58;23.77;;;6.50;99.90;;;;;;4980642;29;20043;-82
2023/01/09 14:00:11;;;;;;;35.42;22.67;;;6.50;99.90;;;;;;4980918;28;20038;-82
2023/01/09 14:02:37;;;;;;;34.78;22.60;;;6.40;99.90;;;;;;4964654;28;20022;-82
2023/01/09 14:05:23;;;;;;;;;;;6.50;99.90;;;;;;4965043;28;20043;-82
2023/01/09 14:08:00;;;;;;;34.70;21.85;;;6.40;99.90;;;;;;4962789;28;19918;-83
2023/01/09 14:10:44;;;;;;;30.20;18.77;;;6.40;99.90;;;;;;4980883;28;20024;-81
2023/01/09 14:13:25;;;;;;;29.27;18.90;;;6.40;99.90;;;;;;4981026;28;20011;-82
2023/01/09 14:16:00;;;;;;;37.50;23.60;;;6.50;99.90;;;;;;4964294;28;20020;-83
2023/01/09 14:18:30;;;;;;;35.67;21.13;;;6.30;99.90;;;;;;4980321;28;20039;-80
2023/01/09 14:21:05;;;;;;;32.60;20.55;;;6.50;99.90;;;;;;4963745;28;20061;-82
2023/01/09 14:23:57;;;;;;;28.35;18.85;;;6.40;99.90;;;;;;4979986;28;20071;-81
2023/01/09 14:26:49;;;;;;;29.40;19.48;;;6.30;99.90;;;;;;4981038;28;20051;-82
2023/01/09 14:29:30;;;;;;;43.95;25.38;;;6.50;99.90;;;;;;4964636;28;20015;-80
2023/01/09 14:32:21;;;;;;;41.13;25.33;;;6.40;99.90;;;;;;4964443;28;20024;-79
2023/01/09 14:34:49;;;;;;;44.65;24.58;;;6.30;99.90;;;;;;4981089;28;20063;-82
2023/01/09 14:37:17;;;;;;;50.47;29.45;;;6.20;99.90;;;;;;4964633;28;20018;-81
2023/01/09 14:39:45;;;;;;;44.05;27.00;;;6.40;99.90;;;;;;4963794;28;20086;-81
2023/01/09 14:42:15;;;;;;;44.75;26.05;;;6.40;99.90;;;;;;4964620;28;20086;-80
2023/01/09 14:45:00;;;;;;;47.88;29.55;;;6.50;99.90;;;;;;4981019;28;20027;-80
2023/01/09 14:47:50;;;;;;;43.55;26.40;;;6.50;99.90;;;;;;4964762;28;20011;-80
2023/01/09 14:50:43;;;;;;;44.20;27.08;;;6.50;99.90;;;;;;4964516;28;20082;-81
2023/01/09 14:53:29;;;;;;;45.33;26.92;;;6.40;99.90;;;;;;4964542;28;20007;-80
2023/01/09 14:55:56;;;;;;;66.75;34.70;;;6.40;99.90;;;;;;4980965;28;20082;-81
2023/01/09 14:58:30;;;;;;;52.33;30.85;;;6.30;99.90;;;;;;4964371;28;20039;-80
2023/01/09 15:01:04;;;;;;;46.83;27.88;;;6.30;99.90;;;;;;4964370;28;20011;-80
2023/01/09 15:03:39;;;;;;;39.40;25.83;;;6.30;99.90;;;;;;4964499;28;20012;-83
2023/01/09 15:06:09;;;;;;;41.55;24.20;;;6.30;99.90;;;;;;4980747;28;20039;-82
2023/01/09 15:08:35;;;;;;;29.30;19.60;;;6.40;99.90;;;;;;4964261;28;20007;-82
2023/01/09 15:11:01;;;;;;;33.80;20.55;;;6.60;99.90;;;;;;4980789;28;20035;-82
2023/01/09 15:13:30;;;;;;;;;;;6.50;99.90;;;;;;4980979;28;20095;-82
2023/01/09 15:15:56;;;;;;;38.72;24.60;;;6.50;99.90;;;;;;4964078;28;19894;-82
2023/01/09 15:18:26;;;;;;;44.60;27.83;;;6.30;99.90;;;;;;4980636;28;20078;-81
2023/01/09 15:21:02;;;;;;;41.72;26.67;;;6.50;99.90;;;;;;4980534;28;20019;-84
2023/01/09 15:23:29;;;;;;;33.10;21.35;;;6.30;99.90;;;;;;4980470;28;20079;-83
2023/01/09 15:26:26;;;;;;;41.75;25.00;;;6.50;99.90;;;;;;4963307;28;20058;-83
2023/01/09 15:29:00;;;;;;;37.17;22.52;;;6.40;99.90;;;;;;4980551;28;20020;-82
2023/01/09 15:31:27;;;;;;;33.42;21.70;;;6.50;99.90;;;;;;4964061;28;20094;-81
2023/01/09 15:33:53;;;;;;;38.45;23.02;;;6.60;99.90;;;;;;4964014;28;20031;-83
2023/01/09 15:36:25;;;;;;;40.17;25.60;;;6.50;99.90;;;;;;4980771;28;20015;-82
2023/01/09 15:38:52;;;;;;;38.95;23.85;;;6.50;99.90;;;;;;4980620;28;20023;-81
2023/01/09 15:44:26;;;;;;;46.55;28.75;;;6.50;99.90;;;;;;4958220;28;20055;-81
2023/01/09 15:46:57;;;;;;;41.58;23.63;;;6.50;99.90;;;;;;4980444;28;20016;-81
2023/01/09 15:49:23;;;;;;;38.08;23.15;;;6.40;99.90;;;;;;4963959;28;20016;-80
2023/01/09 15:51:50;;;;;;;36.17;23.23;;;6.30;99.90;;;;;;4983884;28;20019;-80
2023/01/09 15:54:20;;;;;;;35.15;23.67;;;6.30;99.90;;;;;;4984227;28;20016;-81
2023/01/09 15:56:46;;;;;;;38.10;23.52;;;6.40;99.90;;;;;;4984235;28;20015;-80
2023/01/09 15:59:26;;;;;;;;;;;6.40;99.90;;;;;;4984561;28;20015;-81
2023/01/09 16:04:43;;;;;;;27.35;18.55;;;6.50;99.90;;;;;;4984156;28;20038;-81
2023/01/09 16:07:12;;;;;;;;;;;6.60;99.90;;;;;;4968049;28;20015;-81
2023/01/09 16:09:38;;;;;;;32.08;19.75;;;6.50;99.90;;;;;;4983971;28;19894;-80
2023/01/09 16:12:03;;;;;;;;;;;6.70;99.90;;;;;;4967875;28;20043;-81
2023/01/09 16:14:37;;;;;;;33.08;19.58;;;6.60;99.90;;;;;;4967505;28;19902;-80
2023/01/09 16:17:06;;;;;;;33.17;22.15;;;6.70;99.90;;;;;;4983900;28;20015;-82
2023/01/09 16:19:44;;;;;;;34.38;22.35;;;6.80;99.90;;;;;;4967269;28;20012;-81
2023/01/09 16:22:23;;;;;;;34.15;22.90;;;6.80;99.90;;;;;;4983828;28;20019;-83
2023/01/09 16:24:53;;;;;;;36.22;20.98;;;6.70;99.90;;;;;;4983684;28;20102;-81
2023/01/09 16:27:31;;;;;;;34.00;21.48;;;6.70;99.90;;;;;;4967121;28;20411;-82
2023/01/09 16:29:59;;;;;;;34.55;22.60;;;6.70;99.90;;;;;;4967163;28;20034;-82
2023/01/09 20:02:39;;;;;;;10.52;8.00;;;6.60;99.90;;;;;;5379834;23;20031;-83
2023/01/09 20:05:05;;;;;;;14.82;10.75;;;6.70;99.90;;;;;;4964566;29;20056;-83
2023/01/09 20:07:32;;;;;;;15.48;9.52;;;6.50;99.90;;;;;;4963156;29;20051;-85
2023/01/09 20:09:58;;;;;;;14.10;10.43;;;6.60;99.90;;;;;;4964220;29;20135;-84
2023/01/09 20:12:24;;;;;;;;;;;6.60;99.90;;;;;;4964998;29;20035;-83
2023/01/09 20:14:50;;;;;;;16.67;10.13;;;6.60;99.90;;;;;;4964381;29;19910;-84
2023/01/09 20:17:17;;;;;;;20.13;12.82;;;6.50;99.90;;;;;;4963494;29;20036;-84